Notice: Undefined index: language in /storage/ssd5/510/10272510/public_html/vam1/vam/index.php on line 25
Brand Clickair VA

 METAR AND TAF INFORMATION
METAR FOR EGAA
ADDS - METARS form results

(0246 UTC 26 September 2020)
Data provider http://aviationweather.gov/metar/data/
 
METAR text: EGAA 260220Z AUTO 17004KT 140V260 9999 NCD 03/01 Q1017
Conditions at: EGAA (BELFAST/ALDERGRO, GB) observed 0220 UTC 26 September 2020
Temperature: 3.0°C (37°F)
Dewpoint: 1.0°C (34°F) [RH = 87%]
Pressure (altimeter): 30.03 inches Hg (1017.0 mb)
Winds: from the S (170 degrees) at 5 MPH (4 knots; 2.1 m/s)
Visibility: 6 or more miles (10+ km)
Ceiling: at least 12,000 feet AGL
Clouds: sky clear below 12,000 feet AGL
Weather: no significant weather observed at this time

METAR text: EGAA 260150Z VRB03KT 9999 FEW035 04/01 Q1017
Conditions at: EGAA (BELFAST/ALDERGRO, GB) observed 0150 UTC 26 September 2020
Temperature: 4.0°C (39°F)
Dewpoint: 1.0°C (34°F) [RH = 81%]
Pressure (altimeter): 30.03 inches Hg (1017.0 mb)
Winds: variable direction winds at 3 MPH (3 knots; 1.5 m/s)
Visibility: 6 or more miles (10+ km)
Ceiling: at least 12,000 feet AGL
Clouds: few clouds at 3500 feet AGL
Weather: no significant weather observed at this time

Forecast for: EGAA (BELFAST/ALDERGRO, GB)
Text: TAF EGAA 252302Z 2600/2624 34003KT 9999 FEW030
Forecast period: 0000 UTC 26 September 2020 to 0000 UTC 27 September 2020
Forecast type: FROM: standard forecast or significant change
Winds: from the NNW (340 degrees) at 3 MPH (3 knots; 1.5 m/s)
Visibility: 6 or more miles (10+ km)
Ceiling: at least 12,000 feet AGL
Clouds: few clouds at 3000 feet AGL
Weather: no significant weather forecast for this period

 AIRPORT MAP

 RUNWAY INFORMATION
Runway 07 Runway length 9121 ft Runway width 148 ft
Runway elevation 206 ft Runway displaced threshold 0 ft Runway heading 65
Runway 25 Runway length 9121 ft Runway width 148 ft
Runway elevation 268 ft Runway displaced threshold 0 ft Runway heading 245
Runway 17 Runway length 6401 ft Runway width 148 ft
Runway elevation 206 ft Runway displaced threshold 525 ft Runway heading 162
Runway 35 Runway length 6401 ft Runway width 148 ft
Runway elevation 258 ft Runway displaced threshold 502 ft Runway heading 342

 AIRPORT FREQUENCIES
Type APP Name APP Frequency 128.5 MHZ
Type ATIS Name ATIS Frequency 128.2 MHZ
Type GND Name GND Frequency 121.75 MHZ
Type ILS 17 Name Frequency 110.9 MHZ
Type ILS 25 Name Frequency 109.9 MHZ
Type OPS Name OPS Frequency 26.48 MHZ
Type RDR Name DIRECTOR Frequency 120.9 MHZ
Type TWR Name TWR Frequency 118.3 MHZ

 AIRPORT NEAR NAVIGATION AIDS
Type VOR-DME Name Belfast Frequency 117200 KHZ
Type NDB Name Aldergrove Frequency 332 KHZ



Powered by Virtual Airlines Manager [v2.6.2]